createdAt,value
2022-12-26T06:59:54.280Z,997.65
2022-12-26T07:00:54.361Z,997.63
2022-12-26T07:01:54.342Z,997.69
2022-12-26T07:02:54.269Z,997.67
2022-12-26T07:03:54.217Z,997.64
2022-12-26T07:04:54.226Z,997.59
2022-12-26T07:05:54.180Z,997.56
2022-12-26T07:06:54.170Z,997.57
2022-12-26T07:07:54.170Z,997.56
2022-12-26T07:08:54.160Z,997.49
2022-12-26T07:09:54.221Z,997.57
2022-12-26T07:10:54.128Z,997.57
2022-12-26T07:11:54.123Z,997.50
2022-12-26T07:12:54.109Z,997.55
2022-12-26T07:13:54.098Z,997.55
2022-12-26T07:14:59.676Z,997.63
2022-12-26T07:15:55.173Z,997.66
2022-12-26T07:16:54.125Z,997.63
2022-12-26T07:17:54.068Z,997.61
2022-12-26T07:18:54.052Z,997.58
2022-12-26T07:19:54.055Z,997.59
2022-12-26T07:20:54.026Z,997.63
2022-12-26T07:21:54.047Z,997.61
2022-12-26T07:22:53.999Z,997.70
2022-12-26T07:23:53.994Z,997.66
2022-12-26T07:24:54.016Z,997.72
2022-12-26T07:25:53.969Z,997.72
2022-12-26T07:26:53.977Z,997.75
2022-12-26T07:27:53.980Z,997.74
2022-12-26T07:28:53.943Z,997.76
2022-12-26T07:29:53.932Z,997.79
2022-12-26T07:30:53.928Z,997.82
2022-12-26T07:31:54.017Z,997.82
2022-12-26T07:32:53.889Z,997.87
2022-12-26T07:33:53.903Z,997.93
2022-12-26T07:34:53.884Z,997.98
2022-12-26T07:35:53.871Z,997.98
2022-12-26T07:36:53.867Z,997.96
2022-12-26T07:37:53.844Z,997.98
2022-12-26T07:38:53.823Z,997.98
2022-12-26T07:39:58.971Z,997.93
2022-12-26T07:40:54.834Z,997.89
2022-12-26T07:41:53.797Z,997.90
2022-12-26T07:42:53.799Z,997.94
2022-12-26T07:43:53.771Z,997.92
2022-12-26T07:44:53.764Z,997.89
2022-12-26T07:45:53.814Z,997.89
2022-12-26T07:46:53.741Z,997.85
2022-12-26T07:47:53.763Z,997.86
2022-12-26T07:48:53.734Z,997.81
2022-12-26T07:49:53.728Z,997.79
2022-12-26T07:50:53.694Z,997.73
2022-12-26T07:51:53.728Z,997.77
2022-12-26T07:52:53.683Z,997.88
2022-12-26T07:53:53.698Z,997.92
2022-12-26T07:54:53.695Z,997.95
2022-12-26T07:55:53.645Z,997.92
2022-12-26T07:57:03.888Z,997.96
2022-12-26T07:57:54.692Z,997.96
2022-12-26T07:58:53.627Z,997.96
2022-12-26T07:59:53.963Z,997.99
2022-12-26T08:00:53.672Z,997.94
2022-12-26T08:01:53.840Z,998.06
2022-12-26T08:02:53.769Z,998.10
2022-12-26T08:03:53.722Z,998.11
2022-12-26T08:04:53.556Z,998.15
2022-12-26T08:05:53.533Z,998.17
2022-12-26T08:06:53.547Z,998.23
2022-12-26T08:07:53.543Z,998.21
2022-12-26T08:08:53.532Z,998.10
2022-12-26T08:09:53.557Z,998.10
2022-12-26T08:10:53.483Z,998.10
2022-12-26T08:11:53.488Z,998.14
2022-12-26T08:12:53.464Z,998.12
2022-12-26T08:13:53.469Z,998.09
2022-12-26T08:14:53.439Z,998.09
2022-12-26T08:15:53.471Z,998.18
2022-12-26T08:16:53.877Z,998.26
2022-12-26T08:17:53.414Z,998.30
2022-12-26T08:18:53.409Z,998.31
2022-12-26T08:19:53.412Z,998.34
2022-12-26T08:20:53.373Z,998.38
2022-12-26T08:21:53.413Z,998.39
2022-12-26T08:22:53.365Z,998.45
2022-12-26T08:23:53.387Z,998.37
2022-12-26T08:24:53.328Z,998.26
2022-12-26T08:25:53.320Z,998.33
2022-12-26T08:26:53.303Z,998.30
2022-12-26T08:27:53.357Z,998.25
2022-12-26T08:28:53.283Z,998.32
2022-12-26T08:29:53.293Z,998.33
2022-12-26T08:30:53.268Z,998.31
2022-12-26T08:31:53.268Z,998.32
2022-12-26T08:32:53.240Z,998.37
2022-12-26T08:33:53.302Z,998.36
2022-12-26T08:34:53.241Z,998.39
2022-12-26T08:35:53.227Z,998.40
2022-12-26T08:36:53.199Z,998.29
2022-12-26T08:37:53.214Z,998.36
2022-12-26T08:38:53.178Z,998.33
2022-12-26T08:39:53.202Z,998.33
2022-12-26T08:40:53.151Z,998.33
2022-12-26T08:41:53.146Z,998.29
2022-12-26T08:43:12.336Z,998.26
2022-12-26T08:44:54.144Z,998.36
2022-12-26T08:45:53.166Z,998.35
2022-12-26T08:46:53.086Z,998.35
2022-12-26T08:47:53.082Z,998.33
2022-12-26T08:48:53.091Z,998.28
2022-12-26T08:49:53.058Z,998.30
2022-12-26T08:50:53.062Z,998.37
2022-12-26T08:51:53.074Z,998.35
2022-12-26T08:52:53.022Z,998.43
2022-12-26T08:53:53.019Z,998.40
2022-12-26T08:54:53.030Z,998.45
2022-12-26T08:55:52.998Z,998.49
2022-12-26T08:56:52.985Z,998.56
2022-12-26T08:57:52.998Z,998.60
2022-12-26T08:58:52.980Z,998.65
2022-12-26T08:59:52.952Z,998.59
2022-12-26T09:00:55.476Z,998.60
2022-12-26T09:01:53.015Z,998.57
2022-12-26T09:02:53.183Z,998.58
2022-12-26T09:03:52.902Z,998.57
2022-12-26T09:04:52.913Z,998.57
2022-12-26T09:05:52.884Z,998.62
2022-12-26T09:06:52.870Z,998.63
2022-12-26T09:07:52.879Z,998.61
2022-12-26T09:08:52.907Z,998.64
2022-12-26T09:09:52.836Z,998.66
2022-12-26T09:10:52.839Z,998.55
2022-12-26T09:11:52.821Z,998.48
2022-12-26T09:12:52.806Z,998.43
2022-12-26T09:13:52.802Z,998.44
2022-12-26T09:14:52.846Z,998.43
2022-12-26T09:15:52.775Z,998.44
2022-12-26T09:16:52.911Z,998.45
2022-12-26T09:17:52.750Z,998.49
2022-12-26T09:18:52.748Z,998.49
2022-12-26T09:19:52.731Z,998.46
2022-12-26T09:20:52.770Z,998.55
2022-12-26T09:21:52.718Z,998.58
2022-12-26T09:22:52.718Z,998.57
2022-12-26T09:23:52.702Z,998.58
2022-12-26T09:24:52.676Z,998.61
2022-12-26T09:25:52.681Z,998.65
2022-12-26T09:26:52.701Z,998.71
2022-12-26T09:27:58.599Z,998.75
2022-12-26T09:28:53.629Z,998.83
2022-12-26T09:29:52.630Z,998.85
2022-12-26T09:30:52.619Z,998.89
2022-12-26T09:31:52.612Z,998.88
2022-12-26T09:32:52.613Z,998.88
2022-12-26T09:33:52.583Z,998.85
2022-12-26T09:34:52.565Z,998.85
2022-12-26T09:35:52.552Z,998.83
2022-12-26T09:36:52.537Z,998.87
2022-12-26T09:37:52.548Z,998.98
2022-12-26T09:38:52.607Z,998.98
2022-12-26T09:39:52.526Z,999.00
2022-12-26T09:40:52.493Z,999.02
2022-12-26T09:41:52.489Z,999.01
2022-12-26T09:42:52.504Z,998.94
2022-12-26T09:43:52.472Z,999.00
2022-12-26T09:44:52.490Z,999.08
2022-12-26T09:45:52.473Z,999.03
2022-12-26T09:46:52.428Z,999.02
2022-12-26T09:47:52.457Z,999.06
2022-12-26T09:48:52.414Z,999.09
2022-12-26T09:49:52.399Z,999.08
2022-12-26T09:50:52.447Z,999.08
2022-12-26T09:51:52.377Z,999.11
2022-12-26T09:52:52.410Z,999.07
2022-12-26T09:53:52.380Z,999.15
2022-12-26T09:54:52.377Z,999.10
2022-12-26T09:55:52.353Z,999.17
2022-12-26T09:57:02.407Z,999.12
2022-12-26T09:57:53.326Z,999.13
2022-12-26T09:58:52.308Z,999.19
2022-12-26T09:59:52.488Z,999.18
2022-12-26T10:00:52.285Z,999.16
2022-12-26T10:01:52.358Z,999.16
2022-12-26T10:02:52.323Z,999.19
2022-12-26T10:03:52.252Z,999.16
2022-12-26T10:04:52.304Z,999.19
2022-12-26T10:05:52.252Z,999.23
2022-12-26T10:06:52.223Z,999.22
2022-12-26T10:07:52.209Z,999.17
2022-12-26T10:08:52.221Z,999.26
2022-12-26T10:09:52.205Z,999.25
2022-12-26T10:10:52.175Z,999.27
2022-12-26T10:11:52.205Z,999.22
2022-12-26T10:12:52.164Z,999.28
2022-12-26T10:13:52.148Z,999.29
2022-12-26T10:14:52.183Z,999.31
2022-12-26T10:15:52.238Z,999.25
2022-12-26T10:16:52.114Z,999.21
2022-12-26T10:17:52.101Z,999.25
2022-12-26T10:18:52.095Z,999.23
2022-12-26T10:19:52.083Z,999.25
2022-12-26T10:20:52.159Z,999.30
2022-12-26T10:21:52.080Z,999.23
2022-12-26T10:22:52.070Z,999.30
2022-12-26T10:23:52.056Z,999.32
2022-12-26T10:24:52.092Z,999.25
2022-12-26T10:25:52.059Z,999.26
2022-12-26T10:26:52.059Z,999.26
2022-12-26T10:27:52.019Z,999.21
2022-12-26T10:28:52.023Z,999.15
2022-12-26T10:29:52.008Z,999.14
2022-12-26T10:30:52.037Z,999.15
2022-12-26T10:31:51.962Z,999.13
2022-12-26T10:32:51.998Z,999.23
2022-12-26T10:33:51.945Z,999.24
2022-12-26T10:34:51.929Z,999.22
2022-12-26T10:35:51.939Z,999.21
2022-12-26T10:36:51.920Z,999.22
2022-12-26T10:37:51.900Z,999.19
2022-12-26T10:38:51.954Z,999.19
2022-12-26T10:39:51.913Z,999.25
2022-12-26T10:40:51.860Z,999.18
2022-12-26T10:41:51.878Z,999.16
2022-12-26T10:42:51.902Z,999.20
2022-12-26T10:43:51.852Z,999.24
2022-12-26T10:44:51.878Z,999.28
2022-12-26T10:45:51.845Z,999.31
2022-12-26T10:46:51.812Z,999.33
2022-12-26T10:47:51.792Z,999.30
2022-12-26T10:48:51.777Z,999.34
2022-12-26T10:49:51.795Z,999.34
2022-12-26T10:50:51.813Z,999.37
2022-12-26T10:51:51.739Z,999.37
2022-12-26T10:52:51.742Z,999.41
2022-12-26T10:53:51.748Z,999.34
2022-12-26T10:54:51.704Z,999.34
2022-12-26T10:55:52.723Z,999.37
2022-12-26T10:56:51.734Z,999.37
2022-12-26T10:57:51.679Z,999.35
2022-12-26T10:58:51.669Z,999.36
2022-12-26T10:59:51.740Z,999.27
2022-12-26T11:00:51.654Z,999.30
2022-12-26T11:01:51.801Z,999.28
2022-12-26T11:02:51.827Z,999.28
2022-12-26T11:03:51.697Z,999.29
2022-12-26T11:05:15.526Z,999.26
2022-12-26T11:06:09.206Z,999.26
2022-12-26T11:06:52.686Z,999.30
2022-12-26T11:07:51.574Z,999.20
2022-12-26T11:08:51.629Z,999.27
2022-12-26T11:09:51.543Z,999.26
2022-12-26T11:10:51.534Z,999.24
2022-12-26T11:11:51.541Z,999.27
2022-12-26T11:14:02.996Z,999.39
2022-12-26T11:15:01.704Z,999.42
2022-12-26T11:16:01.753Z,999.43
2022-12-26T11:17:01.692Z,999.38
2022-12-26T11:18:01.674Z,999.35
2022-12-26T11:19:01.701Z,999.39
2022-12-26T11:20:01.660Z,999.35
2022-12-26T11:21:01.642Z,999.34
2022-12-26T11:22:01.615Z,999.33
2022-12-26T11:23:01.612Z,999.33
2022-12-26T11:24:01.614Z,999.31
2022-12-26T11:25:01.655Z,999.28
2022-12-26T11:26:01.572Z,999.16
2022-12-26T11:27:01.567Z,999.24
2022-12-26T11:28:01.546Z,999.28
2022-12-26T11:29:01.543Z,999.27
2022-12-26T11:30:01.565Z,999.16
2022-12-26T11:31:01.606Z,999.30
2022-12-26T11:32:01.519Z,999.24
2022-12-26T11:33:01.481Z,999.22
2022-12-26T11:34:01.480Z,999.29
2022-12-26T11:35:01.483Z,999.22
2022-12-26T11:36:01.468Z,999.18
2022-12-26T11:37:01.497Z,999.14
2022-12-26T11:38:01.431Z,999.16
2022-12-26T11:39:01.417Z,999.23
2022-12-26T11:40:01.414Z,999.11
2022-12-26T11:41:01.412Z,999.14
2022-12-26T11:42:01.442Z,999.19
2022-12-26T11:43:01.367Z,999.14
2022-12-26T11:44:01.367Z,999.20
2022-12-26T11:45:01.364Z,999.17
2022-12-26T11:46:01.348Z,999.18
2022-12-26T11:47:01.344Z,999.18
2022-12-26T11:48:01.392Z,999.15
2022-12-26T11:49:01.307Z,999.09
2022-12-26T11:50:01.303Z,999.14
2022-12-26T11:51:01.284Z,999.08
2022-12-26T11:52:01.278Z,999.12
2022-12-26T11:53:01.308Z,999.09
2022-12-26T11:54:01.309Z,999.07
2022-12-26T11:55:01.242Z,999.12
2022-12-26T11:56:01.246Z,999.10
2022-12-26T11:57:01.263Z,999.17
2022-12-26T11:58:01.255Z,999.15
2022-12-26T11:59:01.199Z,999.24
2022-12-26T12:00:01.223Z,999.19
2022-12-26T12:01:01.185Z,999.26
2022-12-26T12:02:01.278Z,999.26
2022-12-26T12:03:01.232Z,999.22
2022-12-26T12:04:01.164Z,999.25
2022-12-26T12:05:01.133Z,999.24
2022-12-26T12:06:01.167Z,999.28
2022-12-26T12:07:01.121Z,999.22
2022-12-26T12:08:01.169Z,999.34
2022-12-26T12:09:05.811Z,999.35
2022-12-26T12:10:02.088Z,999.29
2022-12-26T12:11:01.064Z,999.34
2022-12-26T12:12:01.116Z,999.35
2022-12-26T12:13:01.057Z,999.34
2022-12-26T12:14:01.047Z,999.38
2022-12-26T12:15:01.032Z,999.35
2022-12-26T12:16:01.064Z,999.32
2022-12-26T12:17:01.018Z,999.27
2022-12-26T12:18:01.047Z,999.19
2022-12-26T12:19:01.094Z,999.26
2022-12-26T12:20:00.975Z,999.19
2022-12-26T12:21:00.961Z,999.16
2022-12-26T12:22:00.951Z,999.19
2022-12-26T12:23:00.975Z,999.16
2022-12-26T12:24:00.981Z,999.11
2022-12-26T12:25:00.932Z,999.16
2022-12-26T12:26:00.908Z,999.19
2022-12-26T12:27:04.919Z,999.13
2022-12-26T12:28:00.966Z,999.11
2022-12-26T12:29:00.868Z,999.18
2022-12-26T12:30:00.924Z,999.16
2022-12-26T12:31:00.841Z,999.18
2022-12-26T12:32:00.897Z,999.22
2022-12-26T12:33:00.853Z,999.31
2022-12-26T12:34:00.817Z,999.33
2022-12-26T12:35:00.820Z,999.40
2022-12-26T12:36:00.853Z,999.35
2022-12-26T12:37:00.792Z,999.45
2022-12-26T12:38:00.820Z,999.37
2022-12-26T12:39:00.776Z,999.41
2022-12-26T12:40:00.751Z,999.39
2022-12-26T12:41:00.756Z,999.35
2022-12-26T12:42:00.794Z,999.38
2022-12-26T12:43:00.743Z,999.34
2022-12-26T12:44:00.706Z,999.45
2022-12-26T12:45:00.699Z,999.37
2022-12-26T12:46:00.733Z,999.31
2022-12-26T12:47:00.732Z,999.27
2022-12-26T12:48:00.710Z,999.30
2022-12-26T12:49:00.683Z,999.31
2022-12-26T12:50:00.658Z,999.28
2022-12-26T12:51:00.650Z,999.28
2022-12-26T12:52:00.618Z,999.24
2022-12-26T12:53:00.648Z,999.29
2022-12-26T12:54:00.644Z,999.26
2022-12-26T12:55:00.626Z,999.33
2022-12-26T12:56:00.611Z,999.28
2022-12-26T12:57:00.567Z,999.31
2022-12-26T12:58:00.557Z,999.31
2022-12-26T12:59:00.579Z,999.28
2022-12-26T13:00:00.559Z,999.35
2022-12-26T13:01:00.630Z,999.34
2022-12-26T13:02:07.066Z,999.28
2022-12-26T13:03:01.687Z,999.29
2022-12-26T13:04:00.488Z,999.23
2022-12-26T13:05:00.497Z,999.31
2022-12-26T13:06:00.531Z,999.25
2022-12-26T13:07:00.469Z,999.21
2022-12-26T13:08:00.442Z,999.19
2022-12-26T13:09:00.437Z,999.28
2022-12-26T13:10:00.435Z,999.14
2022-12-26T13:11:00.428Z,999.17
2022-12-26T13:12:00.434Z,999.06
2022-12-26T13:13:00.404Z,999.12
2022-12-26T13:14:00.383Z,999.11
2022-12-26T13:15:00.371Z,999.17
2022-12-26T13:16:00.396Z,999.17
2022-12-26T13:17:00.386Z,999.22
2022-12-26T13:18:00.333Z,999.21
2022-12-26T13:19:00.321Z,999.20
2022-12-26T13:20:02.541Z,999.17
2022-12-26T13:21:00.331Z,999.19
2022-12-26T13:22:00.293Z,999.23
2022-12-26T13:23:00.302Z,999.21
2022-12-26T13:24:00.278Z,999.19
2022-12-26T13:25:00.269Z,999.23
2022-12-26T13:26:04.621Z,999.23
2022-12-26T13:27:00.252Z,999.22
2022-12-26T13:28:00.236Z,999.19
2022-12-26T13:29:00.249Z,999.18
2022-12-26T13:30:00.221Z,999.27
2022-12-26T13:31:00.212Z,999.25
2022-12-26T13:32:00.423Z,999.23
2022-12-26T13:33:00.209Z,999.27
2022-12-26T13:34:00.193Z,999.26
2022-12-26T13:35:00.179Z,999.20
2022-12-26T13:36:00.138Z,999.30
2022-12-26T13:37:00.191Z,999.28
2022-12-26T13:38:00.126Z,999.23
2022-12-26T13:39:00.145Z,999.16
2022-12-26T13:40:00.184Z,999.15
2022-12-26T13:41:00.104Z,999.13
2022-12-26T13:42:00.130Z,999.13
2022-12-26T13:43:00.125Z,999.10
2022-12-26T13:44:00.039Z,999.06
2022-12-26T13:45:00.112Z,999.16
2022-12-26T13:46:00.111Z,999.22
2022-12-26T13:47:00.029Z,999.17
2022-12-26T13:48:00.035Z,999.20
2022-12-26T13:49:00.036Z,999.23
2022-12-26T13:49:59.985Z,999.25
2022-12-26T13:50:59.965Z,999.24
2022-12-26T13:51:59.986Z,999.20
2022-12-26T13:52:59.973Z,999.26
2022-12-26T13:53:59.936Z,999.24
2022-12-26T13:54:59.968Z,999.29
2022-12-26T13:55:59.908Z,999.33
2022-12-26T13:56:59.952Z,999.28
2022-12-26T13:57:59.912Z,999.34
2022-12-26T13:58:59.887Z,999.30
2022-12-26T13:59:59.887Z,999.31
2022-12-26T14:00:59.972Z,999.29
2022-12-26T14:02:06.037Z,999.34
2022-12-26T14:03:17.780Z,999.30
2022-12-26T14:04:01.021Z,999.28
2022-12-26T14:04:59.909Z,999.25
2022-12-26T14:05:59.792Z,999.26
2022-12-26T14:06:59.808Z,999.28
2022-12-26T14:07:59.791Z,999.21
2022-12-26T14:08:59.806Z,999.26
2022-12-26T14:09:59.752Z,999.26
2022-12-26T14:10:59.777Z,999.31
2022-12-26T14:11:59.763Z,999.25
2022-12-26T14:12:59.775Z,999.29
2022-12-26T14:13:59.709Z,999.36
2022-12-26T14:14:59.724Z,999.31
2022-12-26T14:15:59.696Z,999.30
2022-12-26T14:16:59.743Z,999.41
2022-12-26T14:17:59.704Z,999.39
2022-12-26T14:18:59.678Z,999.40
2022-12-26T14:19:59.641Z,999.40
2022-12-26T14:20:59.677Z,999.46
2022-12-26T14:21:59.638Z,999.50
2022-12-26T14:22:59.615Z,999.52
2022-12-26T14:23:59.609Z,999.66
2022-12-26T14:24:59.599Z,999.77
2022-12-26T14:25:59.665Z,999.77
2022-12-26T14:26:59.591Z,999.82
2022-12-26T14:27:59.563Z,999.83
2022-12-26T14:28:59.572Z,999.79
2022-12-26T14:29:59.535Z,999.80
2022-12-26T14:30:59.627Z,999.86
2022-12-26T14:31:59.548Z,999.87
2022-12-26T14:33:01.698Z,999.85
2022-12-26T14:33:59.505Z,999.86
2022-12-26T14:34:59.483Z,999.88
2022-12-26T14:35:59.465Z,999.89
2022-12-26T14:36:59.471Z,999.85
2022-12-26T14:37:59.441Z,999.84
2022-12-26T14:38:59.533Z,999.93
2022-12-26T14:39:59.425Z,999.97
2022-12-26T14:40:59.449Z,999.95
2022-12-26T14:41:59.414Z,1000.04
2022-12-26T14:42:59.415Z,1000.16
2022-12-26T14:43:59.395Z,1000.13
2022-12-26T14:44:59.374Z,1000.05
2022-12-26T14:45:59.545Z,1000.10
2022-12-26T14:46:59.359Z,999.98
2022-12-26T14:47:59.352Z,999.93
2022-12-26T14:48:59.328Z,999.89
2022-12-26T14:49:59.308Z,999.80
2022-12-26T14:50:59.353Z,999.87
2022-12-26T14:51:59.362Z,999.92
2022-12-26T14:52:59.414Z,999.90
2022-12-26T14:53:59.296Z,999.89
2022-12-26T14:54:59.289Z,999.96
2022-12-26T14:55:59.247Z,999.96
2022-12-26T14:56:59.267Z,999.90
2022-12-26T14:57:59.273Z,999.89
2022-12-26T14:58:59.254Z,999.93
2022-12-26T15:00:03.411Z,999.91
2022-12-26T15:00:59.291Z,999.92
2022-12-26T15:01:59.329Z,999.91
2022-12-26T15:02:59.248Z,999.92
2022-12-26T15:03:59.185Z,999.92
2022-12-26T15:04:59.163Z,999.94
2022-12-26T15:05:59.137Z,999.97
2022-12-26T15:06:59.131Z,999.94
2022-12-26T15:07:59.147Z,999.97
2022-12-26T15:08:59.161Z,999.97
2022-12-26T15:09:59.097Z,1000.04
2022-12-26T15:10:59.213Z,1000.06
2022-12-26T15:11:59.127Z,1000.01
2022-12-26T15:12:59.457Z,1000.11
2022-12-26T15:13:59.055Z,1000.20
2022-12-26T15:14:59.063Z,1000.22
2022-12-26T15:15:59.150Z,1000.19
2022-12-26T15:16:59.033Z,1000.28
2022-12-26T15:17:59.048Z,1000.35
2022-12-26T15:18:59.017Z,1000.37
2022-12-26T15:19:59.004Z,1000.43
2022-12-26T15:20:58.985Z,1000.50
2022-12-26T15:21:58.998Z,1000.58
2022-12-26T15:22:58.993Z,1000.60
2022-12-26T15:23:58.943Z,1000.60
2022-12-26T15:25:59.909Z,1000.63
2022-12-26T15:26:58.932Z,1000.69
2022-12-26T15:27:58.963Z,1000.72
2022-12-26T15:28:58.936Z,1000.74
2022-12-26T15:29:58.875Z,1000.74
2022-12-26T15:30:58.972Z,1000.82
2022-12-26T15:31:58.852Z,1000.78
2022-12-26T15:32:58.851Z,1000.79
2022-12-26T15:33:58.884Z,1000.87
2022-12-26T15:34:58.829Z,1000.86
2022-12-26T15:36:03.146Z,1000.87
2022-12-26T15:36:58.825Z,1000.87
2022-12-26T15:37:58.848Z,1000.83
2022-12-26T15:38:58.776Z,1000.88
2022-12-26T15:39:58.767Z,1000.94
2022-12-26T15:40:58.782Z,1000.91
2022-12-26T15:41:58.768Z,1000.92
2022-12-26T15:42:58.739Z,1000.89
2022-12-26T15:43:58.730Z,1000.90
2022-12-26T15:44:58.715Z,1000.95
2022-12-26T15:45:58.755Z,1000.96
2022-12-26T15:46:58.741Z,1000.99
2022-12-26T15:47:58.694Z,1000.95
2022-12-26T15:48:58.682Z,1000.91
2022-12-26T15:49:58.666Z,1001.00
2022-12-26T15:50:58.662Z,1000.97
2022-12-26T15:51:58.656Z,1001.06
2022-12-26T15:52:58.663Z,1001.06
2022-12-26T15:53:58.642Z,1001.11
2022-12-26T15:54:58.604Z,1001.16
2022-12-26T15:55:58.609Z,1001.19
2022-12-26T15:56:58.580Z,1001.18
2022-12-26T15:57:58.582Z,1001.23
2022-12-26T15:58:59.499Z,1001.27
2022-12-26T15:59:58.580Z,1001.30
2022-12-26T16:00:58.539Z,1001.33
2022-12-26T16:01:58.678Z,1001.36
2022-12-26T16:02:58.711Z,1001.38
2022-12-26T16:03:58.500Z,1001.40
2022-12-26T16:04:58.519Z,1001.36
2022-12-26T16:05:58.501Z,1001.34
2022-12-26T16:06:58.512Z,1001.38
2022-12-26T16:07:58.457Z,1001.41
2022-12-26T16:08:58.452Z,1001.42
2022-12-26T16:09:58.461Z,1001.41
2022-12-26T16:10:58.459Z,1001.39
2022-12-26T16:11:58.413Z,1001.43
2022-12-26T16:12:58.454Z,1001.43
2022-12-26T16:13:58.418Z,1001.43
2022-12-26T16:14:58.413Z,1001.41
2022-12-26T16:15:58.407Z,1001.47
2022-12-26T16:16:58.376Z,1001.44
2022-12-26T16:17:58.374Z,1001.51
2022-12-26T16:18:58.365Z,1001.53
2022-12-26T16:19:58.329Z,1001.56
2022-12-26T16:20:58.347Z,1001.58
2022-12-26T16:21:58.323Z,1001.58
2022-12-26T16:22:58.308Z,1001.61
2022-12-26T16:23:58.289Z,1001.60
2022-12-26T16:24:58.312Z,1001.59
2022-12-26T16:25:58.291Z,1001.61
2022-12-26T16:26:58.250Z,1001.65
2022-12-26T16:27:58.243Z,1001.66
2022-12-26T16:28:58.249Z,1001.64
2022-12-26T16:29:58.213Z,1001.65
2022-12-26T16:30:58.281Z,1001.62
2022-12-26T16:31:58.221Z,1001.62
2022-12-26T16:32:58.209Z,1001.62
2022-12-26T16:33:58.180Z,1001.63
2022-12-26T16:34:58.203Z,1001.67
2022-12-26T16:36:00.978Z,1001.68
2022-12-26T16:36:58.171Z,1001.74
2022-12-26T16:37:58.145Z,1001.71
2022-12-26T16:38:58.138Z,1001.79
2022-12-26T16:39:58.107Z,1001.79
2022-12-26T16:40:58.102Z,1001.90
2022-12-26T16:41:58.088Z,1001.88
2022-12-26T16:42:58.106Z,1001.91
2022-12-26T16:43:58.078Z,1001.92
2022-12-26T16:44:58.058Z,1001.96
2022-12-26T16:45:58.096Z,1001.93
2022-12-26T16:46:58.101Z,1001.90
2022-12-26T16:47:58.022Z,1001.91
2022-12-26T16:48:58.045Z,1001.96
2022-12-26T16:49:58.045Z,1002.00
2022-12-26T16:50:58.036Z,1001.99
2022-12-26T16:51:57.974Z,1002.02
2022-12-26T16:52:57.971Z,1002.09
2022-12-26T16:53:57.967Z,1002.14
2022-12-26T16:54:57.983Z,1002.10
2022-12-26T16:55:57.964Z,1002.15
2022-12-26T16:56:57.925Z,1002.14
2022-12-26T16:57:57.911Z,1002.10
2022-12-26T16:59:02.831Z,1002.13
2022-12-26T16:59:58.996Z,1002.18
2022-12-26T17:00:57.903Z,1002.19
2022-12-26T17:01:57.972Z,1002.20
2022-12-26T17:02:57.965Z,1002.22
2022-12-26T17:03:57.845Z,1002.17
2022-12-26T17:04:58.723Z,1002.27
2022-12-26T17:05:57.820Z,1002.16
2022-12-26T17:06:57.875Z,1002.23
2022-12-26T17:07:57.804Z,1002.23
2022-12-26T17:08:57.800Z,1002.20
2022-12-26T17:09:57.832Z,1002.29
2022-12-26T17:10:57.772Z,1002.31
2022-12-26T17:11:57.769Z,1002.29
2022-12-26T17:12:57.800Z,1002.32
2022-12-26T17:13:57.826Z,1002.34
2022-12-26T17:14:58.390Z,1002.40
2022-12-26T17:15:57.779Z,1002.39
2022-12-26T17:16:57.730Z,1002.48
2022-12-26T17:17:57.732Z,1002.54
2022-12-26T17:18:57.683Z,1002.58
2022-12-26T17:19:57.702Z,1002.59
2022-12-26T17:20:57.689Z,1002.62
2022-12-26T17:21:57.665Z,1002.58
2022-12-26T17:22:57.668Z,1002.63
2022-12-26T17:23:57.659Z,1002.63
2022-12-26T17:24:57.625Z,1002.67
2022-12-26T17:25:57.605Z,1002.68
2022-12-26T17:26:57.596Z,1002.72
2022-12-26T17:27:57.604Z,1002.76
2022-12-26T17:28:57.582Z,1002.82
2022-12-26T17:29:57.592Z,1002.80
2022-12-26T17:30:57.593Z,1002.81
2022-12-26T17:31:57.537Z,1002.83
2022-12-26T17:32:57.552Z,1002.84
2022-12-26T17:33:57.525Z,1002.81
2022-12-26T17:34:57.512Z,1002.84
2022-12-26T17:37:58.496Z,1002.82
2022-12-26T17:38:57.485Z,1002.85
2022-12-26T17:40:02.588Z,1002.87
2022-12-26T17:40:58.441Z,1002.87
2022-12-26T17:41:57.458Z,1002.92
2022-12-26T17:42:57.437Z,1002.88
2022-12-26T17:43:57.421Z,1002.91
2022-12-26T17:44:57.401Z,1002.91
2022-12-26T17:45:57.392Z,1002.94
2022-12-26T17:46:57.462Z,1002.96
2022-12-26T17:47:57.431Z,1002.97
2022-12-26T17:48:57.356Z,1003.01
2022-12-26T17:49:57.388Z,1003.00
2022-12-26T17:50:57.331Z,1003.02
2022-12-26T17:52:01.771Z,1003.09
2022-12-26T17:52:57.356Z,1003.03
2022-12-26T17:53:57.316Z,1003.04
2022-12-26T17:54:57.310Z,1003.06
2022-12-26T17:55:57.291Z,1003.11
2022-12-26T17:56:57.266Z,1003.08
2022-12-26T17:57:57.280Z,1003.12
2022-12-26T17:58:57.275Z,1003.20
2022-12-26T17:59:57.255Z,1003.21
2022-12-26T18:00:57.244Z,1003.25
2022-12-26T18:01:57.367Z,1003.25
2022-12-26T18:02:57.303Z,1003.32
2022-12-26T18:03:57.197Z,1003.26
2022-12-26T18:04:57.181Z,1003.37
2022-12-26T18:05:57.203Z,1003.33
2022-12-26T18:06:57.187Z,1003.25
2022-12-26T18:07:57.150Z,1003.33
2022-12-26T18:08:57.136Z,1003.28
2022-12-26T18:09:57.135Z,1003.31
2022-12-26T18:10:57.131Z,1003.34
2022-12-26T18:11:57.135Z,1003.33
2022-12-26T18:12:57.118Z,1003.37
2022-12-26T18:13:57.088Z,1003.42
2022-12-26T18:15:01.772Z,1003.39
2022-12-26T18:15:58.124Z,1003.47
2022-12-26T18:16:57.057Z,1003.46
2022-12-26T18:17:57.071Z,1003.44
2022-12-26T18:18:57.044Z,1003.47
2022-12-26T18:19:57.063Z,1003.51
2022-12-26T18:20:57.001Z,1003.52
2022-12-26T18:21:56.994Z,1003.56
2022-12-26T18:22:56.985Z,1003.71
2022-12-26T18:23:56.998Z,1003.67
2022-12-26T18:24:56.969Z,1003.68
2022-12-26T18:25:56.979Z,1003.67
2022-12-26T18:26:56.962Z,1003.77
2022-12-26T18:27:56.929Z,1003.80
2022-12-26T18:28:56.939Z,1003.80
2022-12-26T18:29:56.910Z,1003.77
2022-12-26T18:30:56.903Z,1003.82
2022-12-26T18:31:56.956Z,1003.85
2022-12-26T18:32:56.880Z,1003.89
2022-12-26T18:33:56.904Z,1003.90
2022-12-26T18:34:56.860Z,1003.90
2022-12-26T18:35:56.866Z,1003.96
2022-12-26T18:36:56.840Z,1003.92
2022-12-26T18:37:56.865Z,1003.95
2022-12-26T18:38:56.810Z,1004.02
2022-12-26T18:39:57.049Z,1004.02
2022-12-26T18:40:56.810Z,1004.03
2022-12-26T18:41:56.776Z,1004.09
2022-12-26T18:42:56.796Z,1004.11
2022-12-26T18:43:56.780Z,1004.16
2022-12-26T18:44:56.752Z,1004.14
2022-12-26T18:45:56.795Z,1004.20
2022-12-26T18:46:56.767Z,1004.24
2022-12-26T18:47:56.735Z,1004.23
2022-12-26T18:48:56.855Z,1004.31
2022-12-26T18:49:56.724Z,1004.35
2022-12-26T18:50:56.690Z,1004.33
2022-12-26T18:51:56.676Z,1004.34
2022-12-26T18:52:56.658Z,1004.35
2022-12-26T18:53:56.653Z,1004.41
2022-12-26T18:54:56.661Z,1004.42
2022-12-26T18:55:56.670Z,1004.47
2022-12-26T18:56:56.627Z,1004.43
2022-12-26T18:57:56.600Z,1004.49
2022-12-26T18:58:58.182Z,1004.47
2022-12-26T18:59:56.585Z,1004.49
2022-12-26T19:00:56.603Z,1004.57
2022-12-26T19:01:56.630Z,1004.54
2022-12-26T19:02:56.562Z,1004.57
2022-12-26T19:03:56.568Z,1004.64
2022-12-26T19:04:56.542Z,1004.66
2022-12-26T19:05:56.525Z,1004.73
2022-12-26T19:06:56.519Z,1004.69
2022-12-26T19:07:56.560Z,1004.72
2022-12-26T19:08:56.477Z,1004.73
2022-12-26T19:09:56.471Z,1004.76
2022-12-26T19:10:56.459Z,1004.82
2022-12-26T19:11:56.560Z,1004.76
2022-12-26T19:13:02.902Z,1004.81
2022-12-26T19:13:57.444Z,1004.83
2022-12-26T19:14:56.437Z,1004.86
2022-12-26T19:15:56.440Z,1004.94
2022-12-26T19:16:56.397Z,1004.89
2022-12-26T19:17:57.407Z,1004.94
2022-12-26T19:18:56.506Z,1004.93
2022-12-26T19:19:56.355Z,1005.03
2022-12-26T19:20:56.352Z,1004.96
2022-12-26T19:21:56.408Z,1005.04
2022-12-26T19:22:56.355Z,1005.09
2022-12-26T19:23:56.327Z,1005.09
2022-12-26T19:24:56.333Z,1005.09